sensor_id;sensor_type;location;lat;lon;timestamp;pressure;altitude;pressure_sealevel;temperature;humidity
65359;BME280;52491;45.900;6.346;2024-01-30T00:01:13;95147.22;;;22.12;25.72
65359;BME280;52491;45.900;6.346;2024-01-30T00:03:38;95147.44;;;22.10;25.78
65359;BME280;52491;45.900;6.346;2024-01-30T00:06:04;95144.78;;;22.10;25.72
65359;BME280;52491;45.900;6.346;2024-01-30T00:08:30;95141.53;;;22.08;25.82
65359;BME280;52491;45.900;6.346;2024-01-30T00:10:55;95141.53;;;22.08;25.77
65359;BME280;52491;45.900;6.346;2024-01-30T00:13:21;95143.59;;;22.06;25.71
65359;BME280;52491;45.900;6.346;2024-01-30T00:15:46;95136.66;;;22.05;25.74
65359;BME280;52491;45.900;6.346;2024-01-30T00:18:12;95146.47;;;22.05;25.85
65359;BME280;52491;45.900;6.346;2024-01-30T00:20:37;95143.81;;;22.05;25.72
65359;BME280;52491;45.900;6.346;2024-01-30T00:23:03;95143.00;;;22.04;25.66
65359;BME280;52491;45.900;6.346;2024-01-30T00:25:29;95146.69;;;22.03;25.60
65359;BME280;52491;45.900;6.346;2024-01-30T00:27:54;95148.53;;;22.03;25.65
65359;BME280;52491;45.900;6.346;2024-01-30T00:30:20;95143.22;;;22.03;25.65
65359;BME280;52491;45.900;6.346;2024-01-30T00:32:46;95145.06;;;22.02;25.73
65359;BME280;52491;45.900;6.346;2024-01-30T00:35:11;95145.25;;;22.01;25.67
65359;BME280;52491;45.900;6.346;2024-01-30T00:37:37;95149.75;;;22.00;25.63
65359;BME280;52491;45.900;6.346;2024-01-30T00:40:02;95151.63;;;22.00;25.56
65359;BME280;52491;45.900;6.346;2024-01-30T00:42:28;95145.50;;;21.99;25.55
65359;BME280;52491;45.900;6.346;2024-01-30T00:44:54;95143.66;;;22.00;25.57
65359;BME280;52491;45.900;6.346;2024-01-30T00:47:19;95145.69;;;21.98;25.63
65359;BME280;52491;45.900;6.346;2024-01-30T00:49:45;95144.88;;;21.97;25.59
65359;BME280;52491;45.900;6.346;2024-01-30T00:52:11;95144.69;;;21.99;25.50
65359;BME280;52491;45.900;6.346;2024-01-30T00:54:37;95144.88;;;21.97;25.56
65359;BME280;52491;45.900;6.346;2024-01-30T00:57:02;95141.44;;;21.97;25.50
65359;BME280;52491;45.900;6.346;2024-01-30T00:59:28;95140.63;;;21.96;25.59
65359;BME280;52491;45.900;6.346;2024-01-30T01:01:53;95138.97;;;21.95;25.41
65359;BME280;52491;45.900;6.346;2024-01-30T01:04:19;95146.13;;;21.95;25.52
65359;BME280;52491;45.900;6.346;2024-01-30T01:06:46;95142.66;;;21.94;25.36
65359;BME280;52491;45.900;6.346;2024-01-30T01:09:12;95138.16;;;21.95;25.45
65359;BME280;52491;45.900;6.346;2024-01-30T01:11:38;95141.63;;;21.95;25.54
65359;BME280;52491;45.900;6.346;2024-01-30T01:14:04;95144.28;;;21.95;25.44
65359;BME280;52491;45.900;6.346;2024-01-30T01:16:30;95134.69;;;21.94;25.38
65359;BME280;52491;45.900;6.346;2024-01-30T01:18:56;95138.97;;;21.95;25.42
65359;BME280;52491;45.900;6.346;2024-01-30T01:21:21;95138.97;;;21.95;25.51
65359;BME280;52491;45.900;6.346;2024-01-30T01:23:48;95142.66;;;21.94;25.31
65359;BME280;52491;45.900;6.346;2024-01-30T01:26:13;95140.00;;;21.94;25.51
65359;BME280;52491;45.900;6.346;2024-01-30T01:28:40;95147.19;;;21.94;25.42
65359;BME280;52491;45.900;6.346;2024-01-30T01:31:06;95146.38;;;21.93;25.47
65359;BME280;52491;45.900;6.346;2024-01-30T01:33:32;95149.03;;;21.93;25.35
65359;BME280;52491;45.900;6.346;2024-01-30T01:35:59;95142.88;;;21.93;25.36
65359;BME280;52491;45.900;6.346;2024-01-30T01:38:25;95142.88;;;21.93;25.46
65359;BME280;52491;45.900;6.346;2024-01-30T01:40:50;95142.06;;;21.92;25.34
65359;BME280;52491;45.900;6.346;2024-01-30T01:43:16;95140.44;;;21.91;25.38
65359;BME280;52491;45.900;6.346;2024-01-30T01:45:42;95142.88;;;21.93;25.37
65359;BME280;52491;45.900;6.346;2024-01-30T01:48:08;95144.50;;;21.94;25.34
65359;BME280;52491;45.900;6.346;2024-01-30T01:50:35;95144.50;;;21.94;25.34
65359;BME280;52491;45.900;6.346;2024-01-30T01:53:01;95144.50;;;21.94;25.25
65359;BME280;52491;45.900;6.346;2024-01-30T01:55:28;95147.97;;;21.94;25.33
65359;BME280;52491;45.900;6.346;2024-01-30T01:57:54;95140.00;;;21.94;25.28
65359;BME280;52491;45.900;6.346;2024-01-30T02:00:20;95144.50;;;21.94;25.53
65359;BME280;52491;45.900;6.346;2024-01-30T02:02:46;95139.22;;;21.94;25.20
65359;BME280;52491;45.900;6.346;2024-01-30T02:05:15;95141.63;;;21.95;25.41
65359;BME280;52491;45.900;6.346;2024-01-30T02:07:41;95142.66;;;21.94;25.19
65359;BME280;52491;45.900;6.346;2024-01-30T02:10:08;95137.34;;;21.94;25.10
65359;BME280;52491;45.900;6.346;2024-01-30T02:12:35;95141.06;;;21.93;25.12
65359;BME280;52491;45.900;6.346;2024-01-30T02:15:00;95129.41;;;21.94;25.17
65359;BME280;52491;45.900;6.346;2024-01-30T02:17:26;95131.44;;;21.92;25.17
65359;BME280;52491;45.900;6.346;2024-01-30T02:19:52;95125.13;;;21.93;25.02
65359;BME280;52491;45.900;6.346;2024-01-30T02:22:17;95131.44;;;21.92;25.11
65359;BME280;52491;45.900;6.346;2024-01-30T02:24:44;95132.50;;;21.91;25.28
65359;BME280;52491;45.900;6.346;2024-01-30T02:27:10;95135.94;;;21.92;24.96
65359;BME280;52491;45.900;6.346;2024-01-30T02:29:35;95131.44;;;21.92;25.11
65359;BME280;52491;45.900;6.346;2024-01-30T02:32:01;95135.94;;;21.92;25.07
65359;BME280;52491;45.900;6.346;2024-01-30T02:34:26;95127.19;;;21.91;25.21
65359;BME280;52491;45.900;6.346;2024-01-30T02:36:52;95127.19;;;21.91;24.97
65359;BME280;52491;45.900;6.346;2024-01-30T02:39:17;95130.03;;;21.89;25.13
65359;BME280;52491;45.900;6.346;2024-01-30T02:41:43;95126.56;;;21.89;25.21
65359;BME280;52491;45.900;6.346;2024-01-30T02:44:08;95131.06;;;21.88;25.19
65359;BME280;52491;45.900;6.346;2024-01-30T02:46:34;95129.03;;;21.90;25.12
65359;BME280;52491;45.900;6.346;2024-01-30T02:48:59;95133.28;;;21.92;25.05
65359;BME280;52491;45.900;6.346;2024-01-30T02:51:25;95127.19;;;21.91;25.00
65359;BME280;52491;45.900;6.346;2024-01-30T02:53:50;95125.75;;;21.88;25.18
65359;BME280;52491;45.900;6.346;2024-01-30T02:56:15;95121.50;;;21.87;25.06
65359;BME280;52491;45.900;6.346;2024-01-30T02:58:41;95117.00;;;21.88;25.02
65359;BME280;52491;45.900;6.346;2024-01-30T03:01:07;95113.28;;;21.89;25.09
65359;BME280;52491;45.900;6.346;2024-01-30T03:03:32;95107.19;;;21.88;25.04
65359;BME280;52491;45.900;6.346;2024-01-30T03:06:00;95106.13;;;21.89;24.97
65359;BME280;52491;45.900;6.346;2024-01-30T03:08:26;95108.78;;;21.89;25.19
65359;BME280;52491;45.900;6.346;2024-01-30T03:10:51;95102.69;;;21.89;25.01
65359;BME280;52491;45.900;6.346;2024-01-30T03:13:17;95101.63;;;21.90;25.01
65359;BME280;52491;45.900;6.346;2024-01-30T03:15:42;95107.19;;;21.88;25.00
65359;BME280;52491;45.900;6.346;2024-01-30T03:18:08;95110.63;;;21.89;25.12
65359;BME280;52491;45.900;6.346;2024-01-30T03:20:34;95116.75;;;21.89;24.96
65359;BME280;52491;45.900;6.346;2024-01-30T03:23:00;95114.91;;;21.90;24.92
65359;BME280;52491;45.900;6.346;2024-01-30T03:25:25;95108.78;;;21.89;25.12
65359;BME280;52491;45.900;6.346;2024-01-30T03:27:51;95109.59;;;21.90;25.18
65359;BME280;52491;45.900;6.346;2024-01-30T03:30:17;95114.72;;;21.92;25.08
65359;BME280;52491;45.900;6.346;2024-01-30T03:32:43;95112.84;;;21.92;25.13
65359;BME280;52491;45.900;6.346;2024-01-30T03:35:09;95110.19;;;21.92;25.02
65359;BME280;52491;45.900;6.346;2024-01-30T03:37:34;95103.03;;;21.93;25.25
65359;BME280;52491;45.900;6.346;2024-01-30T03:40:01;95106.53;;;21.93;25.11
65359;BME280;52491;45.900;6.346;2024-01-30T03:42:27;95110.00;;;21.94;25.01
65359;BME280;52491;45.900;6.346;2024-01-30T03:44:52;95105.50;;;21.94;25.19
65359;BME280;52491;45.900;6.346;2024-01-30T03:47:19;95108.16;;;21.94;25.13
65359;BME280;52491;45.900;6.346;2024-01-30T03:49:45;95103.66;;;21.95;25.11
65359;BME280;52491;45.900;6.346;2024-01-30T03:52:11;95099.16;;;21.95;25.12
65359;BME280;52491;45.900;6.346;2024-01-30T03:54:36;95099.75;;;21.97;25.19
65359;BME280;52491;45.900;6.346;2024-01-30T03:57:02;95101.59;;;21.97;25.22
65359;BME280;52491;45.900;6.346;2024-01-30T03:59:27;95106.09;;;21.96;25.04
65359;BME280;52491;45.900;6.346;2024-01-30T04:01:53;95105.88;;;21.98;25.16
65359;BME280;52491;45.900;6.346;2024-01-30T04:04:18;95110.38;;;21.97;25.21
65359;BME280;52491;45.900;6.346;2024-01-30T04:06:44;95110.97;;;21.99;25.07
65359;BME280;52491;45.900;6.346;2024-01-30T04:09:10;95114.44;;;22.00;25.17
65359;BME280;52491;45.900;6.346;2024-01-30T04:11:36;95110.16;;;21.99;25.20
65359;BME280;52491;45.900;6.346;2024-01-30T04:14:02;95109.34;;;21.98;25.16
65359;BME280;52491;45.900;6.346;2024-01-30T04:16:27;95111.78;;;22.00;25.33
65359;BME280;52491;45.900;6.346;2024-01-30T04:18:53;95110.97;;;21.99;25.32
65359;BME280;52491;45.900;6.346;2024-01-30T04:21:20;95106.47;;;22.00;24.98
65359;BME280;52491;45.900;6.346;2024-01-30T04:23:46;95109.94;;;22.00;25.15
65359;BME280;52491;45.900;6.346;2024-01-30T04:26:12;95113.41;;;22.01;25.23
65359;BME280;52491;45.900;6.346;2024-01-30T04:28:37;95101.75;;;22.02;25.21
65359;BME280;52491;45.900;6.346;2024-01-30T04:31:03;95107.06;;;22.02;25.15
65359;BME280;52491;45.900;6.346;2024-01-30T04:33:28;95101.75;;;22.02;25.17
65359;BME280;52491;45.900;6.346;2024-01-30T04:35:54;95107.88;;;22.02;25.15
65359;BME280;52491;45.900;6.346;2024-01-30T04:38:19;95104.41;;;22.02;25.16
65359;BME280;52491;45.900;6.346;2024-01-30T04:40:45;95109.50;;;22.03;25.23
65359;BME280;52491;45.900;6.346;2024-01-30T04:43:10;95106.84;;;22.03;25.23
65359;BME280;52491;45.900;6.346;2024-01-30T04:45:36;95111.34;;;22.03;25.19
65359;BME280;52491;45.900;6.346;2024-01-30T04:48:01;95108.69;;;22.03;25.28
65359;BME280;52491;45.900;6.346;2024-01-30T04:50:27;95112.97;;;22.04;25.21
65359;BME280;52491;45.900;6.346;2024-01-30T04:52:53;95110.09;;;22.05;25.32
65359;BME280;52491;45.900;6.346;2024-01-30T04:55:18;95115.41;;;22.05;25.30
65359;BME280;52491;45.900;6.346;2024-01-30T04:57:44;95115.41;;;22.05;25.25
65359;BME280;52491;45.900;6.346;2024-01-30T05:00:09;95117.03;;;22.06;25.16
65359;BME280;52491;45.900;6.346;2024-01-30T05:02:35;95121.75;;;22.04;25.25
65359;BME280;52491;45.900;6.346;2024-01-30T05:05:00;95121.53;;;22.06;25.11
65359;BME280;52491;45.900;6.346;2024-01-30T05:07:26;95123.38;;;22.05;25.25
65359;BME280;52491;45.900;6.346;2024-01-30T05:09:52;95128.47;;;22.07;25.21
65359;BME280;52491;45.900;6.346;2024-01-30T05:12:17;95124.78;;;22.08;25.18
65359;BME280;52491;45.900;6.346;2024-01-30T05:14:43;95123.75;;;22.09;25.21
65359;BME280;52491;45.900;6.346;2024-01-30T05:17:08;95130.91;;;22.08;25.04
65359;BME280;52491;45.900;6.346;2024-01-30T05:19:35;95138.88;;;22.08;25.15
65359;BME280;52491;45.900;6.346;2024-01-30T05:22:01;95130.91;;;22.08;25.13
65359;BME280;52491;45.900;6.346;2024-01-30T05:24:26;95132.75;;;22.08;25.22
65359;BME280;52491;45.900;6.346;2024-01-30T05:26:52;95127.44;;;22.08;25.18
65359;BME280;52491;45.900;6.346;2024-01-30T05:29:17;95131.94;;;22.07;25.21
65359;BME280;52491;45.900;6.346;2024-01-30T05:31:43;95145.00;;;22.09;25.23
65359;BME280;52491;45.900;6.346;2024-01-30T05:34:08;95137.03;;;22.09;25.31
65359;BME280;52491;45.900;6.346;2024-01-30T05:36:35;95145.81;;;22.09;25.38
65359;BME280;52491;45.900;6.346;2024-01-30T05:39:00;95134.59;;;22.07;25.50
65359;BME280;52491;45.900;6.346;2024-01-30T05:41:26;95147.03;;;22.07;25.65
65359;BME280;52491;45.900;6.346;2024-01-30T05:43:54;95133.19;;;22.05;25.76
65359;BME280;52491;45.900;6.346;2024-01-30T05:46:20;95139.50;;;22.04;25.66
65359;BME280;52491;45.900;6.346;2024-01-30T05:48:45;95140.34;;;22.04;25.61
65359;BME280;52491;45.900;6.346;2024-01-30T05:51:11;95139.31;;;22.05;25.76
65359;BME280;52491;45.900;6.346;2024-01-30T05:53:36;95144.63;;;22.05;25.78
65359;BME280;52491;45.900;6.346;2024-01-30T05:56:02;95145.44;;;22.06;25.92
65359;BME280;52491;45.900;6.346;2024-01-30T05:58:28;95144.63;;;22.05;25.91
65359;BME280;52491;45.900;6.346;2024-01-30T06:00:54;95149.13;;;22.05;25.89
65359;BME280;52491;45.900;6.346;2024-01-30T06:03:19;95151.56;;;22.06;26.02
65359;BME280;52491;45.900;6.346;2024-01-30T06:05:45;95146.03;;;22.08;25.79
65359;BME280;52491;45.900;6.346;2024-01-30T06:08:10;95149.69;;;22.07;25.87
65359;BME280;52491;45.900;6.346;2024-01-30T06:10:36;95159.53;;;22.06;26.02
65359;BME280;52491;45.900;6.346;2024-01-30T06:13:01;95155.84;;;22.07;26.07
65359;BME280;52491;45.900;6.346;2024-01-30T06:15:27;95154.81;;;22.08;25.92
65359;BME280;52491;45.900;6.346;2024-01-30T06:17:55;95160.31;;;22.07;25.72
65359;BME280;52491;45.900;6.346;2024-01-30T06:20:20;95160.19;;;22.02;25.49
65359;BME280;52491;45.900;6.346;2024-01-30T06:22:46;95166.34;;;21.96;25.32
65359;BME280;52491;45.900;6.346;2024-01-30T06:25:11;95162.88;;;21.95;25.13
65359;BME280;52491;45.900;6.346;2024-01-30T06:27:37;95165.53;;;21.95;24.99
65359;BME280;52491;45.900;6.346;2024-01-30T06:30:04;95154.72;;;21.97;25.16
65359;BME280;52491;45.900;6.346;2024-01-30T06:32:30;95162.25;;;22.00;25.20
65359;BME280;52491;45.900;6.346;2024-01-30T06:35:02;95164.88;;;22.00;25.05
65359;BME280;52491;45.900;6.346;2024-01-30T06:37:28;95160.19;;;22.02;25.17
65359;BME280;52491;45.900;6.346;2024-01-30T06:39:53;95161.59;;;22.04;25.10
65359;BME280;52491;45.900;6.346;2024-01-30T06:42:19;95168.09;;;22.08;25.32
65359;BME280;52491;45.900;6.346;2024-01-30T06:44:45;95165.88;;;22.05;25.30
65359;BME280;52491;45.900;6.346;2024-01-30T06:47:10;95171.38;;;22.04;25.33
65359;BME280;52491;45.900;6.346;2024-01-30T06:49:36;95183.84;;;22.03;25.33
65359;BME280;52491;45.900;6.346;2024-01-30T06:52:08;95176.69;;;22.04;25.51
65359;BME280;52491;45.900;6.346;2024-01-30T06:54:33;95180.38;;;22.03;25.50
65359;BME280;52491;45.900;6.346;2024-01-30T06:56:59;95180.38;;;22.03;25.39
65359;BME280;52491;45.900;6.346;2024-01-30T06:59:24;95187.53;;;22.02;25.42
65359;BME280;52491;45.900;6.346;2024-01-30T07:01:50;95189.41;;;22.02;25.48
65359;BME280;52491;45.900;6.346;2024-01-30T07:04:16;95188.34;;;22.03;25.54
65359;BME280;52491;45.900;6.346;2024-01-30T07:06:41;95198.16;;;22.02;25.55
65359;BME280;52491;45.900;6.346;2024-01-30T07:09:07;95196.53;;;22.01;25.49
65359;BME280;52491;45.900;6.346;2024-01-30T07:11:33;95200.81;;;22.02;25.36
65359;BME280;52491;45.900;6.346;2024-01-30T07:13:59;95204.50;;;22.01;25.32
65359;BME280;52491;45.900;6.346;2024-01-30T07:16:24;95210.63;;;22.02;25.40
65359;BME280;52491;45.900;6.346;2024-01-30T07:18:50;95215.13;;;22.01;25.71
65359;BME280;52491;45.900;6.346;2024-01-30T07:21:16;95211.44;;;22.02;25.52
65359;BME280;52491;45.900;6.346;2024-01-30T07:23:42;95212.47;;;22.01;25.52
65359;BME280;52491;45.900;6.346;2024-01-30T07:26:08;95222.06;;;22.02;25.46
65359;BME280;52491;45.900;6.346;2024-01-30T07:28:34;95219.41;;;22.02;25.51
65359;BME280;52491;45.900;6.346;2024-01-30T07:31:03;95219.19;;;22.04;25.49
65359;BME280;52491;45.900;6.346;2024-01-30T07:33:29;95227.38;;;22.02;25.63
65359;BME280;52491;45.900;6.346;2024-01-30T07:35:54;95224.72;;;22.02;25.56
65359;BME280;52491;45.900;6.346;2024-01-30T07:38:20;95228.38;;;22.01;25.52
65359;BME280;52491;45.900;6.346;2024-01-30T07:40:45;95225.72;;;22.01;25.69
65359;BME280;52491;45.900;6.346;2024-01-30T07:43:11;95233.50;;;22.03;25.67
65359;BME280;52491;45.900;6.346;2024-01-30T07:45:36;95234.53;;;22.02;25.62
65359;BME280;52491;45.900;6.346;2024-01-30T07:48:05;95238.81;;;22.03;25.62
65359;BME280;52491;45.900;6.346;2024-01-30T07:50:30;95236.16;;;22.03;25.67
65359;BME280;52491;45.900;6.346;2024-01-30T07:52:56;95239.63;;;22.03;25.68
65359;BME280;52491;45.900;6.346;2024-01-30T07:55:22;95242.28;;;22.03;25.50
65359;BME280;52491;45.900;6.346;2024-01-30T07:57:52;95241.25;;;22.04;25.66
65359;BME280;52491;45.900;6.346;2024-01-30T08:00:19;95244.13;;;22.03;25.63
65359;BME280;52491;45.900;6.346;2024-01-30T08:02:54;95233.31;;;22.04;25.82
65359;BME280;52491;45.900;6.346;2024-01-30T08:05:21;95236.97;;;22.03;25.57
65359;BME280;52491;45.900;6.346;2024-01-30T08:07:48;95241.47;;;22.03;25.43
65359;BME280;52491;45.900;6.346;2024-01-30T08:10:14;95233.50;;;22.03;25.53
65359;BME280;52491;45.900;6.346;2024-01-30T08:12:41;95239.63;;;22.03;25.56
65359;BME280;52491;45.900;6.346;2024-01-30T08:15:06;95239.63;;;22.03;25.61
65359;BME280;52491;45.900;6.346;2024-01-30T08:17:33;95231.88;;;22.02;25.63
65359;BME280;52491;45.900;6.346;2024-01-30T08:19:58;95238.81;;;22.03;25.51
65359;BME280;52491;45.900;6.346;2024-01-30T08:22:24;95233.50;;;22.03;25.71
65359;BME280;52491;45.900;6.346;2024-01-30T08:24:49;95227.38;;;22.02;25.66
65359;BME280;52491;45.900;6.346;2024-01-30T08:27:15;95231.03;;;22.01;25.73
65359;BME280;52491;45.900;6.346;2024-01-30T08:29:40;95226.56;;;22.02;25.66
65359;BME280;52491;45.900;6.346;2024-01-30T08:32:06;95229.81;;;22.04;25.67
65359;BME280;52491;45.900;6.346;2024-01-30T08:34:32;95227.16;;;22.04;25.59
65359;BME280;52491;45.900;6.346;2024-01-30T08:36:58;95231.44;;;22.05;25.42
65359;BME280;52491;45.900;6.346;2024-01-30T08:39:23;95230.66;;;22.04;25.56
65359;BME280;52491;45.900;6.346;2024-01-30T08:41:49;95233.06;;;22.06;25.58
65359;BME280;52491;45.900;6.346;2024-01-30T08:44:14;95237.56;;;22.05;25.61
65359;BME280;52491;45.900;6.346;2024-01-30T08:46:40;95226.72;;;22.07;25.77
65359;BME280;52491;45.900;6.346;2024-01-30T08:49:05;95228.56;;;22.06;25.73
65359;BME280;52491;45.900;6.346;2024-01-30T08:51:31;95234.69;;;22.07;25.63
65359;BME280;52491;45.900;6.346;2024-01-30T08:53:56;95231.22;;;22.06;25.67
65359;BME280;52491;45.900;6.346;2024-01-30T08:56:22;95238.38;;;22.06;25.64
65359;BME280;52491;45.900;6.346;2024-01-30T08:58:47;95247.16;;;22.06;25.68
65359;BME280;52491;45.900;6.346;2024-01-30T09:01:13;95235.72;;;22.06;25.66
65359;BME280;52491;45.900;6.346;2024-01-30T09:03:39;95238.38;;;22.06;25.85
65359;BME280;52491;45.900;6.346;2024-01-30T09:06:11;95237.34;;;22.07;25.64
65359;BME280;52491;45.900;6.346;2024-01-30T09:08:37;95244.72;;;22.05;25.73
65359;BME280;52491;45.900;6.346;2024-01-30T09:11:09;95236.53;;;22.06;25.83
65359;BME280;52491;45.900;6.346;2024-01-30T09:13:36;95238.38;;;22.06;25.78
65359;BME280;52491;45.900;6.346;2024-01-30T09:16:01;95236.75;;;22.05;25.77
65359;BME280;52491;45.900;6.346;2024-01-30T09:18:27;95240.84;;;22.07;25.77
65359;BME280;52491;45.900;6.346;2024-01-30T09:20:52;95244.28;;;22.08;25.77
65359;BME280;52491;45.900;6.346;2024-01-30T09:23:18;95238.19;;;22.07;25.76
65359;BME280;52491;45.900;6.346;2024-01-30T09:25:45;95246.72;;;22.09;25.74
65359;BME280;52491;45.900;6.346;2024-01-30T09:28:10;95243.88;;;22.11;25.87
65359;BME280;52491;45.900;6.346;2024-01-30T09:30:36;95241.00;;;22.12;25.79
65359;BME280;52491;45.900;6.346;2024-01-30T09:33:02;95236.50;;;22.13;25.80
65359;BME280;52491;45.900;6.346;2024-01-30T09:35:27;95232.81;;;22.14;25.68
65359;BME280;52491;45.900;6.346;2024-01-30T09:37:53;95239.53;;;22.17;25.81
65359;BME280;52491;45.900;6.346;2024-01-30T09:40:19;95238.72;;;22.16;25.70
65359;BME280;52491;45.900;6.346;2024-01-30T09:42:50;95240.97;;;22.19;25.83
65359;BME280;52491;45.900;6.346;2024-01-30T09:45:15;95227.69;;;22.19;25.90
65359;BME280;52491;45.900;6.346;2024-01-30T09:47:44;95234.63;;;22.20;25.89
65359;BME280;52491;45.900;6.346;2024-01-30T09:50:10;95233.38;;;22.23;25.80
65359;BME280;52491;45.900;6.346;2024-01-30T09:52:37;95232.38;;;22.24;25.77
65359;BME280;52491;45.900;6.346;2024-01-30T09:55:03;95237.25;;;22.27;25.93
65359;BME280;52491;45.900;6.346;2024-01-30T09:57:30;95240.50;;;22.29;25.76
65359;BME280;52491;45.900;6.346;2024-01-30T09:59:55;95239.47;;;22.30;25.88
65359;BME280;52491;45.900;6.346;2024-01-30T10:02:21;95245.38;;;22.32;25.92
65359;BME280;52491;45.900;6.346;2024-01-30T10:04:51;95244.34;;;22.33;25.91
65359;BME280;52491;45.900;6.346;2024-01-30T10:07:19;95244.72;;;22.37;25.95
65359;BME280;52491;45.900;6.346;2024-01-30T10:09:46;95240.47;;;22.36;26.00
65359;BME280;52491;45.900;6.346;2024-01-30T10:12:12;95243.69;;;22.38;25.87
65359;BME280;52491;45.900;6.346;2024-01-30T10:14:41;95241.44;;;22.41;25.98
65359;BME280;52491;45.900;6.346;2024-01-30T10:17:08;95251.03;;;22.42;26.07
65359;BME280;52491;45.900;6.346;2024-01-30T10:19:35;95247.31;;;22.43;25.94
65359;BME280;52491;45.900;6.346;2024-01-30T10:22:01;95250.81;;;22.44;25.91
65359;BME280;52491;45.900;6.346;2024-01-30T10:24:26;95249.97;;;22.43;26.09
65359;BME280;52491;45.900;6.346;2024-01-30T10:26:53;95248.38;;;22.42;26.06
65359;BME280;52491;45.900;6.346;2024-01-30T10:29:18;95256.34;;;22.42;26.06
65359;BME280;52491;45.900;6.346;2024-01-30T10:31:44;95259.00;;;22.42;26.01
65359;BME280;52491;45.900;6.346;2024-01-30T10:34:09;95264.91;;;22.44;26.02
65359;BME280;52491;45.900;6.346;2024-01-30T10:36:41;95256.50;;;22.47;26.07
65359;BME280;52491;45.900;6.346;2024-01-30T10:39:08;95253.63;;;22.49;26.03
65359;BME280;52491;45.900;6.346;2024-01-30T10:41:42;95257.47;;;22.53;25.97
65359;BME280;52491;45.900;6.346;2024-01-30T10:44:09;95253.59;;;22.55;25.92
65359;BME280;52491;45.900;6.346;2024-01-30T10:46:35;95247.81;;;22.59;25.96
65359;BME280;52491;45.900;6.346;2024-01-30T10:49:04;95244.72;;;22.62;25.86
65359;BME280;52491;45.900;6.346;2024-01-30T10:51:31;95245.34;;;22.64;25.85
65359;BME280;52491;45.900;6.346;2024-01-30T10:53:57;95248.38;;;22.67;25.89
65359;BME280;52491;45.900;6.346;2024-01-30T10:56:23;95238.34;;;22.69;25.82
65359;BME280;52491;45.900;6.346;2024-01-30T10:58:53;95240.31;;;22.74;25.75
65359;BME280;52491;45.900;6.346;2024-01-30T11:01:20;95231.94;;;22.77;25.91
65359;BME280;52491;45.900;6.346;2024-01-30T11:03:51;95228.84;;;22.80;25.75
65359;BME280;52491;45.900;6.346;2024-01-30T11:06:18;95231.06;;;22.83;25.95
65359;BME280;52491;45.900;6.346;2024-01-30T11:09:00;95229.56;;;22.87;25.80
65359;BME280;52491;45.900;6.346;2024-01-30T11:11:26;95227.16;;;22.86;25.75
65359;BME280;52491;45.900;6.346;2024-01-30T11:13:51;95230.00;;;22.84;25.89
65359;BME280;52491;45.900;6.346;2024-01-30T11:16:17;95224.94;;;22.83;25.88
65359;BME280;52491;45.900;6.346;2024-01-30T11:18:42;95227.16;;;22.86;25.88
65359;BME280;52491;45.900;6.346;2024-01-30T11:21:08;95219.97;;;22.86;25.91
65359;BME280;52491;45.900;6.346;2024-01-30T11:23:34;95220.78;;;22.87;25.71
65359;BME280;52491;45.900;6.346;2024-01-30T11:26:00;95218.94;;;22.87;26.00
65359;BME280;52491;45.900;6.346;2024-01-30T11:28:32;95214.84;;;22.85;25.91
65359;BME280;52491;45.900;6.346;2024-01-30T11:31:05;95214.28;;;22.83;25.86
65359;BME280;52491;45.900;6.346;2024-01-30T11:33:32;95218.19;;;22.80;26.04
65359;BME280;52491;45.900;6.346;2024-01-30T11:35:59;95211.22;;;22.79;26.07
65359;BME280;52491;45.900;6.346;2024-01-30T11:38:26;95213.31;;;22.77;26.04
65359;BME280;52491;45.900;6.346;2024-01-30T11:40:54;95222.09;;;22.77;26.30
65359;BME280;52491;45.900;6.346;2024-01-30T11:43:20;95215.13;;;22.76;26.24
65359;BME280;52491;45.900;6.346;2024-01-30T11:45:45;95216.19;;;22.75;26.48
65359;BME280;52491;45.900;6.346;2024-01-30T11:48:12;95213.53;;;22.75;26.61
65359;BME280;52491;45.900;6.346;2024-01-30T11:50:38;95207.41;;;22.75;27.00
65359;BME280;52491;45.900;6.346;2024-01-30T11:53:04;95209.25;;;22.74;26.83
65359;BME280;52491;45.900;6.346;2024-01-30T11:55:30;95203.53;;;22.71;27.16
65359;BME280;52491;45.900;6.346;2024-01-30T11:57:59;95201.94;;;22.70;27.23
65359;BME280;52491;45.900;6.346;2024-01-30T12:00:25;95196.59;;;22.70;27.26
65359;BME280;52491;45.900;6.346;2024-01-30T12:02:52;95199.28;;;22.70;27.37
65359;BME280;52491;45.900;6.346;2024-01-30T12:05:21;95191.28;;;22.70;27.53
65359;BME280;52491;45.900;6.346;2024-01-30T12:07:47;95198.66;;;22.68;27.58
65359;BME280;52491;45.900;6.346;2024-01-30T12:10:13;95191.72;;;22.67;27.71
65359;BME280;52491;45.900;6.346;2024-01-30T12:12:39;95186.41;;;22.67;27.77
65359;BME280;52491;45.900;6.346;2024-01-30T12:15:06;95196.00;;;22.68;27.83
65359;BME280;52491;45.900;6.346;2024-01-30T12:17:33;95180.28;;;22.66;27.82
65359;BME280;52491;45.900;6.346;2024-01-30T12:22:41;95182.34;;;22.64;28.05
65359;BME280;52491;45.900;6.346;2024-01-30T12:25:11;95179.91;;;22.63;28.02
65359;BME280;52491;45.900;6.346;2024-01-30T12:27:37;95179.09;;;22.62;28.06
65359;BME280;52491;45.900;6.346;2024-01-30T12:30:10;95179.91;;;22.63;28.21
65359;BME280;52491;45.900;6.346;2024-01-30T12:32:37;95179.91;;;22.63;28.28
65359;BME280;52491;45.900;6.346;2024-01-30T12:35:07;95181.53;;;22.64;28.21
65359;BME280;52491;45.900;6.346;2024-01-30T12:37:34;95169.25;;;22.63;28.18
65359;BME280;52491;45.900;6.346;2024-01-30T12:39:59;95173.56;;;22.64;28.24
65359;BME280;52491;45.900;6.346;2024-01-30T12:42:27;95171.06;;;22.69;28.19
65359;BME280;52491;45.900;6.346;2024-01-30T12:44:52;95169.44;;;22.68;28.22
65359;BME280;52491;45.900;6.346;2024-01-30T12:47:21;95161.44;;;22.68;28.29
65359;BME280;52491;45.900;6.346;2024-01-30T12:49:47;95160.66;;;22.67;28.20
65359;BME280;52491;45.900;6.346;2024-01-30T12:52:14;95161.84;;;22.71;28.24
65359;BME280;52491;45.900;6.346;2024-01-30T12:54:39;95159.19;;;22.71;28.15
65359;BME280;52491;45.900;6.346;2024-01-30T12:57:05;95161.41;;;22.74;28.10